createdAt,value
2022-10-31T00:02:33.961Z,5.93
2022-10-31T00:05:19.061Z,6.13
2022-10-31T00:08:03.959Z,6.63
2022-10-31T00:10:49.198Z,6.07
2022-10-31T00:13:34.137Z,6.03
2022-10-31T00:16:24.293Z,6.03
2022-10-31T00:19:09.861Z,5.30
2022-10-31T00:21:55.090Z,5.63
2022-10-31T00:24:40.333Z,6.60
2022-10-31T00:27:25.228Z,5.93
2022-10-31T00:30:13.312Z,5.20
2022-10-31T00:32:58.771Z,5.50
2022-10-31T00:35:50.486Z,5.73
2022-10-31T00:38:35.776Z,5.57
2022-10-31T00:41:21.280Z,5.60
2022-10-31T00:44:06.323Z,5.77
2022-10-31T00:46:51.183Z,5.57
2022-10-31T00:49:40.835Z,5.57
2022-10-31T00:52:26.221Z,5.60
2022-10-31T00:55:11.063Z,5.30
2022-10-31T00:57:56.238Z,5.53
2022-10-31T01:00:41.436Z,5.60
2022-10-31T01:03:29.165Z,5.30
2022-10-31T01:06:14.908Z,5.20
2022-10-31T01:09:00.103Z,5.37
2022-10-31T01:11:45.355Z,4.70
2022-10-31T01:14:30.300Z,5.10
2022-10-31T01:17:16.101Z,5.43
2022-10-31T01:20:01.428Z,5.33
2022-10-31T01:22:46.455Z,4.97
2022-10-31T01:25:31.406Z,5.07
2022-10-31T01:28:16.444Z,4.83
2022-10-31T01:31:07.570Z,4.83
2022-10-31T01:33:53.493Z,4.80
2022-10-31T01:36:39.656Z,4.97
2022-10-31T01:39:24.750Z,4.67
2022-10-31T01:42:28.142Z,5.03
2022-10-31T01:45:16.076Z,4.43
2022-10-31T01:48:01.607Z,4.97
2022-10-31T01:50:51.722Z,4.30
2022-10-31T01:53:37.189Z,4.50
2022-10-31T01:56:23.096Z,4.47
2022-10-31T01:59:14.711Z,4.50
2022-10-31T02:02:00.484Z,4.23
2022-10-31T02:04:46.733Z,4.50
2022-10-31T02:07:40.487Z,4.70
2022-10-31T02:10:25.938Z,4.07
2022-10-31T02:13:13.863Z,4.60
2022-10-31T02:16:04.012Z,4.70
2022-10-31T02:18:49.252Z,4.50
2022-10-31T02:21:52.281Z,4.70
2022-10-31T02:25:05.042Z,3.80
2022-10-31T02:28:13.818Z,4.73
2022-10-31T02:31:34.581Z,4.70
2022-10-31T02:34:48.928Z,4.80
2022-10-31T02:37:43.237Z,4.20
2022-10-31T02:40:37.017Z,5.40
2022-10-31T02:43:50.945Z,3.90
2022-10-31T02:47:06.688Z,3.90
2022-10-31T02:50:02.005Z,4.53
2022-10-31T02:52:52.083Z,4.27
2022-10-31T02:55:37.260Z,4.10
2022-10-31T02:58:25.762Z,4.40
2022-10-31T03:01:29.535Z,4.37
2022-10-31T03:04:27.306Z,4.30
2022-10-31T03:07:26.767Z,4.00
2022-10-31T03:10:15.838Z,4.40
2022-10-31T03:13:30.147Z,4.30
2022-10-31T03:16:28.961Z,3.93
2022-10-31T03:19:24.383Z,4.23
2022-10-31T03:22:23.936Z,4.33
2022-10-31T03:25:10.701Z,3.97
2022-10-31T03:27:58.235Z,4.27
2022-10-31T03:30:46.638Z,3.03
2022-10-31T03:33:35.691Z,4.03
2022-10-31T03:36:21.825Z,3.90
2022-10-31T03:39:11.906Z,4.30
2022-10-31T03:42:05.947Z,3.60
2022-10-31T03:44:56.632Z,4.27
2022-10-31T03:47:44.669Z,4.07
2022-10-31T03:50:41.419Z,3.83
2022-10-31T03:53:38.309Z,3.80
2022-10-31T03:56:33.220Z,3.40
2022-10-31T03:59:33.371Z,3.70
2022-10-31T04:02:26.996Z,3.97
2022-10-31T04:05:14.681Z,4.10
2022-10-31T04:08:04.337Z,3.70
2022-10-31T04:10:52.231Z,3.67
2022-10-31T04:13:40.578Z,3.83
2022-10-31T04:16:31.455Z,3.80
2022-10-31T04:19:16.995Z,3.53
2022-10-31T04:22:02.566Z,3.57
2022-10-31T04:24:48.261Z,3.60
2022-10-31T04:27:35.193Z,3.37
2022-10-31T04:30:20.638Z,3.57
2022-10-31T04:33:06.091Z,4.00
2022-10-31T04:35:51.762Z,4.23
2022-10-31T04:38:37.224Z,3.17
2022-10-31T04:41:29.302Z,3.73
2022-10-31T04:44:19.787Z,3.00
2022-10-31T04:47:08.882Z,3.90
2022-10-31T04:49:54.787Z,3.57
2022-10-31T04:52:44.506Z,3.57
2022-10-31T04:55:32.245Z,3.90
2022-10-31T04:58:34.420Z,3.47
2022-10-31T05:01:20.077Z,3.83
2022-10-31T05:04:07.553Z,3.73
2022-10-31T05:06:52.805Z,3.70
2022-10-31T05:09:38.189Z,3.40
2022-10-31T05:12:23.454Z,3.83
2022-10-31T05:15:37.313Z,3.30
2022-10-31T05:18:41.457Z,3.63
2022-10-31T05:21:58.410Z,3.20
2022-10-31T05:24:43.755Z,3.53
2022-10-31T05:27:29.300Z,3.30
2022-10-31T05:30:21.219Z,3.33
2022-10-31T05:33:06.366Z,3.00
2022-10-31T05:36:10.478Z,3.60
2022-10-31T05:39:01.067Z,3.60
2022-10-31T05:41:52.768Z,3.70
2022-10-31T05:44:40.723Z,3.10
2022-10-31T05:47:37.202Z,3.00
2022-10-31T05:50:44.912Z,3.43
2022-10-31T05:53:30.358Z,3.30
2022-10-31T05:56:15.286Z,3.47
2022-10-31T05:59:00.739Z,3.07
2022-10-31T06:01:46.171Z,3.13
2022-10-31T06:05:00.456Z,3.33
2022-10-31T06:07:45.845Z,3.40
2022-10-31T06:10:31.479Z,3.10
2022-10-31T06:13:16.955Z,3.00
2022-10-31T06:16:05.220Z,3.17
2022-10-31T06:18:55.126Z,3.07
2022-10-31T06:21:40.874Z,3.50
2022-10-31T06:24:26.271Z,2.87
2022-10-31T06:27:11.618Z,3.33
2022-10-31T06:29:57.180Z,3.33
2022-10-31T06:32:53.854Z,3.10
2022-10-31T06:35:38.702Z,2.93
2022-10-31T06:38:24.184Z,2.97
2022-10-31T06:41:10.350Z,3.70
2022-10-31T06:44:06.379Z,3.03
2022-10-31T06:47:12.105Z,2.60
2022-10-31T06:50:29.555Z,3.33
2022-10-31T06:53:15.375Z,3.40
2022-10-31T06:56:01.074Z,3.73
2022-10-31T06:58:46.098Z,3.10
2022-10-31T07:01:32.582Z,3.77
2022-10-31T07:04:19.598Z,2.80
2022-10-31T07:07:06.721Z,3.10
2022-10-31T07:09:53.083Z,3.03
2022-10-31T07:12:49.096Z,3.17
2022-10-31T07:15:36.338Z,3.13
2022-10-31T07:18:22.669Z,3.03
2022-10-31T07:21:08.074Z,2.80
2022-10-31T07:23:54.062Z,2.80
2022-10-31T07:27:08.506Z,3.23
2022-10-31T07:29:53.727Z,2.97
2022-10-31T07:32:43.737Z,3.00
2022-10-31T07:35:32.408Z,3.53
2022-10-31T07:38:18.472Z,2.87
2022-10-31T07:41:03.681Z,2.43
2022-10-31T07:43:51.082Z,2.90
2022-10-31T07:46:35.982Z,3.20
2022-10-31T07:49:40.067Z,2.80
2022-10-31T07:52:45.326Z,3.23
2022-10-31T07:55:49.371Z,2.63
2022-10-31T07:58:34.535Z,2.90
2022-10-31T08:01:19.414Z,2.80
2022-10-31T08:04:19.138Z,3.30
2022-10-31T08:07:23.523Z,2.80
2022-10-31T08:10:18.663Z,2.83
2022-10-31T08:13:06.516Z,3.00
2022-10-31T08:15:54.563Z,2.57
2022-10-31T08:18:43.900Z,2.90
2022-10-31T08:21:32.494Z,2.33
2022-10-31T08:24:18.867Z,2.60
2022-10-31T08:27:04.245Z,3.00
2022-10-31T08:29:51.493Z,2.70
2022-10-31T08:32:37.293Z,2.37
2022-10-31T08:35:41.610Z,3.07
2022-10-31T08:39:02.287Z,2.60
2022-10-31T08:41:48.932Z,3.00
2022-10-31T08:44:34.334Z,3.37
2022-10-31T08:47:19.269Z,2.77
2022-10-31T08:50:04.821Z,2.83
2022-10-31T08:53:04.877Z,2.70
2022-10-31T08:55:56.165Z,2.90
2022-10-31T08:58:43.544Z,2.60
2022-10-31T09:01:30.098Z,2.90
2022-10-31T09:04:15.434Z,2.67
2022-10-31T09:07:20.019Z,2.80
2022-10-31T09:10:06.487Z,2.87
2022-10-31T09:12:59.837Z,3.50
2022-10-31T09:16:04.054Z,2.50
2022-10-31T09:18:50.279Z,2.70
2022-10-31T09:21:35.759Z,2.77
2022-10-31T09:24:21.658Z,2.53
2022-10-31T09:27:06.998Z,2.87
2022-10-31T09:29:55.024Z,2.70
2022-10-31T09:32:40.301Z,3.00
2022-10-31T09:35:26.609Z,2.40
2022-10-31T09:38:23.266Z,2.73
2022-10-31T09:41:23.883Z,2.50
2022-10-31T09:44:20.734Z,2.90
2022-10-31T09:47:26.985Z,2.53
2022-10-31T09:50:45.018Z,2.23
2022-10-31T09:54:00.317Z,2.80
2022-10-31T09:56:45.665Z,2.73
2022-10-31T09:59:40.467Z,2.87
2022-10-31T10:02:40.648Z,2.93
2022-10-31T10:05:37.793Z,2.77
2022-10-31T10:08:28.999Z,2.60
2022-10-31T10:11:49.648Z,2.80
2022-10-31T10:14:54.097Z,2.50
2022-10-31T10:17:55.353Z,2.90
2022-10-31T10:21:02.224Z,2.67
2022-10-31T10:23:52.746Z,2.83
2022-10-31T10:26:41.483Z,2.90
2022-10-31T10:29:35.478Z,3.00
2022-10-31T10:32:25.243Z,3.00
2022-10-31T10:35:28.710Z,3.00
2022-10-31T10:38:19.962Z,2.93
2022-10-31T10:41:12.805Z,3.07
2022-10-31T10:43:57.889Z,3.73
2022-10-31T10:47:07.798Z,3.30
2022-10-31T10:49:53.562Z,3.80
2022-10-31T10:53:02.421Z,3.90
2022-10-31T10:55:57.967Z,4.30
2022-10-31T10:58:44.073Z,4.20
2022-10-31T11:01:29.102Z,4.47
2022-10-31T11:04:27.343Z,4.43
2022-10-31T11:07:12.853Z,4.33
2022-10-31T11:10:06.151Z,4.97
2022-10-31T11:13:13.200Z,4.93
2022-10-31T11:16:05.421Z,5.57
2022-10-31T11:18:50.718Z,5.27
2022-10-31T11:21:36.047Z,5.83
2022-10-31T11:24:27.369Z,6.07
2022-10-31T11:27:26.737Z,5.73
2022-10-31T11:30:14.803Z,6.37
2022-10-31T11:33:00.146Z,6.10
2022-10-31T11:35:45.636Z,6.27
2022-10-31T11:38:51.452Z,6.70
2022-10-31T11:41:43.202Z,6.37
2022-10-31T11:44:31.420Z,6.90
2022-10-31T11:47:18.822Z,6.73
2022-10-31T11:50:21.507Z,8.17
2022-10-31T11:53:19.738Z,7.97
2022-10-31T11:56:13.250Z,7.47
2022-10-31T11:59:14.031Z,7.60
2022-10-31T12:02:01.462Z,7.50
2022-10-31T12:04:52.342Z,8.63
2022-10-31T12:07:37.286Z,7.60
2022-10-31T12:10:36.862Z,7.63
2022-10-31T12:13:32.499Z,7.63
2022-10-31T12:16:32.906Z,7.33
2022-10-31T12:19:30.399Z,7.30
2022-10-31T12:22:29.221Z,8.07
2022-10-31T12:25:23.614Z,7.37
2022-10-31T12:28:11.621Z,8.07
2022-10-31T12:31:41.414Z,8.53
2022-10-31T12:34:52.763Z,7.87
2022-10-31T12:37:46.652Z,8.37
2022-10-31T12:40:52.961Z,8.00
2022-10-31T12:44:02.809Z,7.70
2022-10-31T12:47:08.372Z,8.37
2022-10-31T12:50:11.810Z,8.47
2022-10-31T12:53:10.623Z,8.40
2022-10-31T12:56:09.164Z,8.10
2022-10-31T12:59:09.072Z,8.07
2022-10-31T13:02:06.114Z,7.67
2022-10-31T13:04:58.075Z,9.37
2022-10-31T13:07:49.418Z,8.10
2022-10-31T13:11:03.976Z,8.30
2022-10-31T13:13:58.246Z,9.10
2022-10-31T13:16:47.659Z,8.10
2022-10-31T13:19:41.001Z,8.17
2022-10-31T13:22:36.570Z,7.47
2022-10-31T13:25:26.536Z,8.80
2022-10-31T13:28:29.837Z,7.50
2022-10-31T13:31:15.720Z,8.87
2022-10-31T13:34:06.037Z,8.87
2022-10-31T13:37:16.100Z,8.07
2022-10-31T13:40:35.847Z,8.57
2022-10-31T13:43:28.903Z,8.37
2022-10-31T13:46:26.092Z,8.47
2022-10-31T13:49:29.580Z,7.67
2022-10-31T13:52:17.956Z,8.27
2022-10-31T13:55:03.021Z,9.07
2022-10-31T13:57:48.119Z,8.53
2022-10-31T14:00:37.117Z,8.50
2022-10-31T14:03:36.335Z,8.13
2022-10-31T14:06:58.252Z,7.83
2022-10-31T14:10:00.243Z,8.00
2022-10-31T14:12:48.425Z,8.27
2022-10-31T14:15:33.770Z,8.17
2022-10-31T14:18:40.189Z,8.43
2022-10-31T14:21:25.136Z,8.33
2022-10-31T14:24:25.545Z,8.67
2022-10-31T14:27:20.113Z,8.50
2022-10-31T14:30:16.715Z,7.90
2022-10-31T14:33:20.510Z,7.90
2022-10-31T14:36:20.021Z,8.50
2022-10-31T14:39:18.906Z,8.53
2022-10-31T14:42:53.973Z,8.30
2022-10-31T14:46:00.345Z,8.10
2022-10-31T14:48:59.030Z,9.20
2022-10-31T14:51:49.587Z,7.93
2022-10-31T14:54:42.307Z,8.80
2022-10-31T14:57:32.309Z,8.13
2022-10-31T15:00:20.381Z,8.03
2022-10-31T15:04:03.631Z,8.10
2022-10-31T15:06:54.972Z,7.63
2022-10-31T15:09:44.263Z,7.57
2022-10-31T15:12:35.251Z,7.80
2022-10-31T15:15:25.932Z,8.70
2022-10-31T15:18:19.238Z,8.10
2022-10-31T15:21:07.390Z,8.20
2022-10-31T15:24:00.050Z,8.73
2022-10-31T15:26:48.029Z,8.80
2022-10-31T15:29:33.479Z,8.10
2022-10-31T15:32:24.276Z,8.63
2022-10-31T15:35:10.655Z,8.60
2022-10-31T15:37:58.235Z,7.83
2022-10-31T15:40:53.749Z,8.70
2022-10-31T15:43:40.794Z,8.07
2022-10-31T15:46:28.138Z,8.47
2022-10-31T15:49:28.720Z,8.40
2022-10-31T15:52:42.437Z,8.60
2022-10-31T15:55:34.081Z,8.40
2022-10-31T15:58:22.797Z,8.43
2022-10-31T16:01:25.694Z,8.60
2022-10-31T16:04:10.927Z,8.50
2022-10-31T16:07:22.656Z,9.23
2022-10-31T16:10:26.930Z,8.80
2022-10-31T16:13:14.270Z,8.63
2022-10-31T16:16:34.086Z,9.60
2022-10-31T16:19:23.921Z,8.27
2022-10-31T16:22:13.230Z,8.60
2022-10-31T16:25:20.339Z,8.03
2022-10-31T16:28:16.902Z,8.23
2022-10-31T16:31:14.421Z,9.60
2022-10-31T16:34:26.068Z,8.17
2022-10-31T16:37:12.305Z,8.77
2022-10-31T16:39:57.561Z,9.30
2022-10-31T16:42:44.240Z,9.40
2022-10-31T16:45:32.030Z,9.10
2022-10-31T16:48:24.096Z,9.53
2022-10-31T16:51:10.758Z,10.07
2022-10-31T16:53:56.274Z,8.97
2022-10-31T16:56:42.874Z,9.77
2022-10-31T16:59:28.697Z,9.27
2022-10-31T17:02:16.771Z,8.90
2022-10-31T17:05:01.740Z,8.80
2022-10-31T17:07:47.600Z,10.00
2022-10-31T17:10:33.435Z,9.00
2022-10-31T17:13:25.209Z,8.60
2022-10-31T17:16:13.577Z,8.73
2022-10-31T17:18:58.833Z,9.20
2022-10-31T17:21:44.391Z,8.80
2022-10-31T17:24:29.526Z,8.33
2022-10-31T17:27:15.075Z,8.43
2022-10-31T17:30:00.155Z,8.97
2022-10-31T17:32:46.581Z,9.03
2022-10-31T17:35:32.118Z,9.00
2022-10-31T17:38:17.073Z,9.20
2022-10-31T17:41:09.954Z,8.60
2022-10-31T17:43:57.277Z,9.10
2022-10-31T17:46:42.473Z,9.20
2022-10-31T17:49:27.492Z,8.47
2022-10-31T17:52:12.746Z,9.47
2022-10-31T17:54:57.700Z,9.00
2022-10-31T17:57:44.080Z,9.30
2022-10-31T18:00:29.138Z,8.97
2022-10-31T18:03:14.055Z,8.57
2022-10-31T18:05:59.681Z,9.00
2022-10-31T18:08:44.825Z,8.80
2022-10-31T18:11:30.106Z,9.23
2022-10-31T18:14:15.124Z,10.43
2022-10-31T18:17:00.213Z,9.20
2022-10-31T18:19:45.873Z,9.27
2022-10-31T18:22:31.097Z,8.27
2022-10-31T18:25:16.371Z,9.40
2022-10-31T18:28:02.498Z,8.83
2022-10-31T18:30:48.174Z,8.63
2022-10-31T18:33:33.006Z,9.40
2022-10-31T18:36:18.045Z,9.50
2022-10-31T18:39:03.175Z,8.53
2022-10-31T18:41:48.422Z,9.57
2022-10-31T18:44:33.413Z,9.27
2022-10-31T18:47:19.269Z,9.17
2022-10-31T18:50:04.495Z,9.20
2022-10-31T18:52:49.745Z,8.87
2022-10-31T18:55:38.630Z,9.50
2022-10-31T18:58:23.590Z,10.53
2022-10-31T19:01:10.740Z,10.00
2022-10-31T19:03:57.655Z,9.50
2022-10-31T19:06:42.812Z,9.87
2022-10-31T19:09:30.780Z,8.80
2022-10-31T19:12:15.979Z,9.17
2022-10-31T19:15:02.414Z,9.77
2022-10-31T19:17:47.926Z,9.20
2022-10-31T19:20:33.582Z,9.60
2022-10-31T19:23:19.003Z,10.33
2022-10-31T19:26:04.944Z,9.13
2022-10-31T19:28:50.139Z,9.47
2022-10-31T19:31:35.251Z,9.97
2022-10-31T19:34:20.458Z,10.00
2022-10-31T19:37:05.442Z,9.80
2022-10-31T19:39:51.675Z,9.70
2022-10-31T19:42:36.705Z,9.10
2022-10-31T19:45:22.041Z,9.43
2022-10-31T19:48:07.519Z,9.60
2022-10-31T19:50:58.434Z,9.50
2022-10-31T19:53:44.348Z,9.23
2022-10-31T19:56:29.546Z,9.97
2022-10-31T19:59:14.536Z,9.83
2022-10-31T20:01:59.608Z,9.33
2022-10-31T20:04:44.718Z,8.80
2022-10-31T20:07:29.718Z,9.70
2022-10-31T20:10:14.879Z,9.33
2022-10-31T20:12:59.925Z,8.90
2022-10-31T20:15:45.093Z,9.80
2022-10-31T20:18:30.152Z,9.83
2022-10-31T20:21:24.717Z,9.23
2022-10-31T20:24:11.084Z,9.93
2022-10-31T20:26:56.272Z,8.90
2022-10-31T20:29:41.234Z,9.10
2022-10-31T20:32:26.603Z,9.00
2022-10-31T20:35:11.530Z,8.53
2022-10-31T20:37:56.649Z,9.77
2022-10-31T20:40:42.224Z,9.37
2022-10-31T20:43:27.126Z,9.70
2022-10-31T20:46:20.934Z,9.07
2022-10-31T20:49:06.302Z,9.70
2022-10-31T20:51:51.498Z,9.37
2022-10-31T20:54:36.677Z,9.37
2022-10-31T20:57:22.229Z,8.17
2022-10-31T21:00:08.418Z,9.13
2022-10-31T21:02:53.340Z,9.10
2022-10-31T21:05:38.681Z,10.03
2022-10-31T21:08:24.450Z,9.90
2022-10-31T21:11:12.751Z,8.93
2022-10-31T21:13:58.661Z,8.40
2022-10-31T21:16:43.818Z,9.27
2022-10-31T21:19:28.730Z,9.30
2022-10-31T21:22:13.916Z,9.10
2022-10-31T21:24:58.805Z,9.10
2022-10-31T21:27:43.651Z,9.27
2022-10-31T21:30:28.457Z,9.17
2022-10-31T21:33:14.107Z,9.13
2022-10-31T21:35:59.087Z,8.80
2022-10-31T21:38:44.606Z,9.23
2022-10-31T21:41:29.662Z,8.93
2022-10-31T21:44:14.813Z,9.13
2022-10-31T21:46:59.978Z,9.50
2022-10-31T21:49:45.118Z,8.80
2022-10-31T21:52:29.951Z,8.67
2022-10-31T21:55:15.398Z,9.60
2022-10-31T21:58:00.533Z,8.20
2022-10-31T22:00:45.710Z,9.43
2022-10-31T22:03:35.894Z,7.93
2022-10-31T22:06:22.155Z,8.60
2022-10-31T22:09:08.927Z,8.80
2022-10-31T22:11:54.263Z,8.43
2022-10-31T22:14:39.102Z,8.80
2022-10-31T22:17:24.380Z,8.83
2022-10-31T22:20:09.746Z,8.43
2022-10-31T22:22:54.856Z,8.33
2022-10-31T22:25:39.942Z,8.77
2022-10-31T22:28:29.500Z,8.40
2022-10-31T22:31:17.491Z,8.60
2022-10-31T22:34:02.786Z,8.07
2022-10-31T22:36:47.970Z,8.57
2022-10-31T22:39:33.500Z,7.93
2022-10-31T22:42:18.609Z,8.73
2022-10-31T22:45:03.997Z,7.63
2022-10-31T22:47:49.117Z,8.50
2022-10-31T22:50:34.563Z,7.60
2022-10-31T22:53:19.623Z,8.57
2022-10-31T22:56:06.848Z,7.40
2022-10-31T22:58:52.844Z,8.20
2022-10-31T23:01:38.354Z,7.53
2022-10-31T23:04:23.745Z,7.47
2022-10-31T23:07:11.267Z,8.03
2022-10-31T23:09:58.885Z,8.67
2022-10-31T23:13:02.965Z,7.73
2022-10-31T23:15:48.082Z,7.73
2022-10-31T23:18:49.673Z,8.10
2022-10-31T23:22:02.413Z,7.73
2022-10-31T23:24:48.081Z,7.50
2022-10-31T23:27:32.881Z,7.07
2022-10-31T23:30:18.302Z,7.50
2022-10-31T23:33:03.641Z,8.00
2022-10-31T23:35:49.079Z,6.97
2022-10-31T23:38:34.101Z,7.63
2022-10-31T23:41:19.467Z,7.40
2022-10-31T23:44:04.573Z,7.00
2022-10-31T23:46:49.579Z,7.43
2022-10-31T23:49:34.766Z,8.03
2022-10-31T23:52:20.427Z,6.97
2022-10-31T23:55:05.800Z,8.00
2022-10-31T23:57:51.042Z,7.97
